Time,TemperatureF,DewpointF,PressureIn,WindDirection,WindDirectionDegrees,WindSpeedMPH,WindSpeedGustMPH,Humidity,HourlyPrecipIn,Conditions,Clouds,dailyrainin,SoftwareType,DateUTC
2013-01-16 00:00:00,41.0,40.5,30.26,NE,45,0.0,5.0,98,0.00,,,0.00,VWS V14.01,2013-01-16 05:00:00,
2013-01-16 00:30:00,41.0,40.5,30.26,ENE,68,0.0,2.0,98,0.00,,,0.00,VWS V14.01,2013-01-16 05:30:00,
2013-01-16 01:00:00,41.0,40.5,30.26,NE,45,0.0,3.0,98,0.00,,,0.00,VWS V14.01,2013-01-16 06:00:00,
2013-01-16 01:30:00,41.0,40.5,30.25,NE,45,0.0,4.0,98,0.00,,,0.00,VWS V14.01,2013-01-16 06:30:00,
2013-01-16 02:00:00,41.0,40.5,30.27,NE,45,1.0,6.0,98,0.00,,,0.00,VWS V14.01,2013-01-16 07:00:00,
2013-01-16 02:30:00,40.6,40.1,30.26,NE,45,2.0,7.0,98,0.00,,,0.00,VWS V14.01,2013-01-16 07:30:00,
2013-01-16 03:00:00,40.5,40.0,30.26,NE,45,1.0,7.0,98,0.00,,,0.00,VWS V14.01,2013-01-16 08:00:00,
2013-01-16 03:30:00,40.2,39.7,30.25,NNE,22,1.0,9.0,98,0.00,,,0.00,VWS V14.01,2013-01-16 08:30:00,
2013-01-16 04:00:00,39.6,39.1,30.25,NE,45,2.0,6.0,98,0.01,,,0.01,VWS V14.01,2013-01-16 09:00:00,
2013-01-16 04:30:00,39.2,38.7,30.24,NE,45,1.0,7.0,98,0.03,,,0.03,VWS V14.01,2013-01-16 09:30:00,
2013-01-16 05:00:00,38.6,38.1,30.22,NE,45,2.0,7.0,98,0.04,,,0.04,VWS V14.01,2013-01-16 10:00:00,
2013-01-16 05:30:00,38.5,38.0,30.22,NE,45,0.0,5.0,98,0.03,,,0.04,VWS V14.01,2013-01-16 10:30:00,
2013-01-16 06:00:00,38.5,38.0,30.22,ENE,68,1.0,5.0,98,0.01,,,0.04,VWS V14.01,2013-01-16 11:00:00,
2013-01-16 06:30:00,38.5,38.0,30.22,NE,45,0.0,2.0,98,0.00,,,0.04,VWS V14.01,2013-01-16 11:30:00,
2013-01-16 07:00:00,38.7,38.2,30.23,NE,45,0.0,2.0,98,0.00,,,0.04,VWS V14.01,2013-01-16 12:00:00,
2013-01-16 07:30:00,38.7,38.2,30.23,NE,45,0.0,3.0,98,0.01,,,0.05,VWS V14.01,2013-01-16 12:30:00,
2013-01-16 08:00:00,38.9,38.4,30.22,NE,45,0.0,0.0,98,0.01,,,0.05,VWS V14.01,2013-01-16 13:00:00,
2013-01-16 08:30:00,39.3,38.8,30.23,NE,45,0.0,0.0,98,0.01,,,0.05,VWS V14.01,2013-01-16 13:30:00,
2013-01-16 09:00:00,39.7,39.2,30.24,SE,135,0.0,1.0,98,0.00,,,0.05,VWS V14.01,2013-01-16 14:00:00,
2013-01-16 09:30:00,40.1,39.6,30.24,NE,45,0.0,2.0,98,0.03,,,0.08,VWS V14.01,2013-01-16 14:30:00,
2013-01-16 10:00:00,40.5,40.0,30.25,North,0,0.0,3.0,98,0.03,,,0.08,VWS V14.01,2013-01-16 15:00:00,
2013-01-16 10:30:00,40.7,40.2,30.26,NNE,22,1.0,6.0,98,0.03,,,0.08,VWS V14.01,2013-01-16 15:30:00,
2013-01-16 11:00:00,40.9,40.4,30.25,NNE,22,2.0,9.0,98,0.01,,,0.09,VWS V14.01,2013-01-16 16:00:00,
2013-01-16 11:30:00,41.0,40.5,30.25,NE,45,1.0,5.0,98,0.05,,,0.13,VWS V14.01,2013-01-16 16:30:00,
2013-01-16 12:00:00,41.2,40.7,30.22,NNE,22,0.0,2.0,98,0.09,,,0.17,VWS V14.01,2013-01-16 17:00:00,
2013-01-16 12:30:00,42.3,41.8,30.20,SSE,158,0.0,3.0,98,0.13,,,0.22,VWS V14.01,2013-01-16 17:30:00,
2013-01-16 13:11:00,43.6,43.1,30.19,SW,230,0.0,0.0,98,0.09,,,0.22,VWS V14.01,2013-01-16 18:11:00,
2013-01-16 13:17:00,43.8,43.3,30.18,SW,230,0.0,1.0,98,0.09,,,0.22,VWS V14.01,2013-01-16 18:17:00,
2013-01-16 13:22:00,43.9,43.4,30.18,SW,230,0.0,1.0,98,0.09,,,0.22,VWS V14.01,2013-01-16 18:22:00,
2013-01-16 13:28:00,44.2,43.7,30.18,SW,230,0.0,1.0,98,0.09,,,0.22,VWS V14.01,2013-01-16 18:28:00,
2013-01-16 13:30:00,44.5,44.0,30.17,SW,230,0.0,2.0,98,0.09,,,0.22,VWS V14.01,2013-01-16 18:30:00,
2013-01-16 13:34:00,44.5,44.0,30.17,SW,230,0.0,2.0,98,0.09,,,0.22,VWS V14.01,2013-01-16 18:34:00,
2013-01-16 13:40:00,45.0,44.5,30.17,SW,215,0.0,1.0,98,0.00,,,0.22,VWS V14.01,2013-01-16 18:40:00,
2013-01-16 13:46:00,45.0,44.5,30.18,ENE,75,0.0,2.0,98,0.00,,,0.22,VWS V14.01,2013-01-16 18:46:00,
2013-01-16 13:52:00,45.0,44.5,30.18,SSW,195,0.0,2.0,98,0.00,,,0.22,VWS V14.01,2013-01-16 18:52:00,
2013-01-16 13:58:00,44.9,44.4,30.17,SSW,200,0.0,2.0,98,0.00,,,0.22,VWS V14.01,2013-01-16 18:58:00,
2013-01-16 14:00:00,45.0,44.5,30.17,SSW,200,0.0,2.0,98,0.00,,,0.22,VWS V14.01,2013-01-16 19:00:00,
2013-01-16 14:03:00,45.0,44.5,30.17,SSW,200,0.0,2.0,98,0.00,,,0.22,VWS V14.01,2013-01-16 19:03:00,
2013-01-16 14:09:00,45.1,44.6,30.17,SSW,200,0.0,0.0,98,0.00,,,0.22,VWS V14.01,2013-01-16 19:09:00,
2013-01-16 14:14:00,45.5,45.0,30.17,SSW,200,0.0,0.0,98,0.00,,,0.22,VWS V14.01,2013-01-16 19:14:00,
2013-01-16 14:20:00,45.9,45.4,30.16,SSW,203,0.0,3.0,98,0.00,,,0.22,VWS V14.01,2013-01-16 19:20:00,
2013-01-16 14:26:00,46.0,45.5,30.16,SW,218,1.0,4.0,98,0.00,,,0.22,VWS V14.01,2013-01-16 19:26:00,
2013-01-16 14:30:00,46.2,45.7,30.16,SW,218,0.0,4.0,98,0.00,,,0.22,VWS V14.01,2013-01-16 19:30:00,
2013-01-16 14:32:00,46.1,45.6,30.17,SW,218,0.0,4.0,98,0.00,,,0.22,VWS V14.01,2013-01-16 19:32:00,
2013-01-16 14:37:00,46.2,45.7,30.16,SW,218,0.0,0.0,98,0.00,,,0.22,VWS V14.01,2013-01-16 19:37:00,
2013-01-16 14:43:00,46.3,45.8,30.16,SW,218,0.0,3.0,98,0.00,,,0.22,VWS V14.01,2013-01-16 19:43:00,
2013-01-16 14:49:00,46.4,45.9,30.16,SW,218,0.0,3.0,98,0.00,,,0.22,VWS V14.01,2013-01-16 19:49:00,
2013-01-16 14:55:00,46.4,45.9,30.17,SW,219,0.0,3.0,98,0.00,,,0.22,VWS V14.01,2013-01-16 19:55:00,
2013-01-16 15:00:00,46.9,46.4,30.17,SW,221,0.0,3.0,98,0.00,,,0.22,VWS V14.01,2013-01-16 20:00:00,
2013-01-16 15:01:00,46.7,46.2,30.17,SW,221,0.0,3.0,98,0.00,,,0.22,VWS V14.01,2013-01-16 20:01:00,
2013-01-16 15:06:00,47.0,46.5,30.17,SW,221,0.0,0.0,98,0.00,,,0.22,VWS V14.01,2013-01-16 20:06:00,
2013-01-16 15:12:00,47.5,47.0,30.17,SW,221,0.0,0.0,98,0.00,,,0.22,VWS V14.01,2013-01-16 20:12:00,
2013-01-16 15:18:00,47.7,47.2,30.18,SW,222,0.0,2.0,98,0.00,,,0.22,VWS V14.01,2013-01-16 20:18:00,
2013-01-16 15:24:00,47.9,47.4,30.17,SW,222,0.0,2.0,98,0.00,,,0.22,VWS V14.01,2013-01-16 20:24:00,
2013-01-16 15:30:00,48.2,47.7,30.17,SW,223,0.0,2.0,98,0.00,,,0.22,VWS V14.01,2013-01-16 20:30:00,
2013-01-16 15:35:00,48.3,47.8,30.17,SW,222,0.0,0.0,98,0.00,,,0.22,VWS V14.01,2013-01-16 20:35:00,
2013-01-16 15:41:00,48.6,48.1,30.16,SW,223,0.0,0.0,98,0.00,,,0.22,VWS V14.01,2013-01-16 20:41:00,
2013-01-16 15:47:00,48.8,48.3,30.16,SSW,196,0.0,0.0,98,0.00,,,0.22,VWS V14.01,2013-01-16 20:47:00,
2013-01-16 15:53:00,48.9,48.4,30.17,SSW,207,0.0,3.0,98,0.00,,,0.22,VWS V14.01,2013-01-16 20:53:00,
2013-01-16 15:58:00,49.0,48.5,30.16,SSW,207,0.0,3.0,98,0.00,,,0.22,VWS V14.01,2013-01-16 20:58:00,
2013-01-16 16:00:00,49.1,48.6,30.16,SSW,207,0.0,3.0,98,0.00,,,0.22,VWS V14.01,2013-01-16 21:00:00,
2013-01-16 16:04:00,49.1,48.6,30.16,SSW,207,0.0,3.0,98,0.00,,,0.22,VWS V14.01,2013-01-16 21:04:00,
2013-01-16 16:10:00,49.2,48.7,30.18,SSW,207,0.0,0.0,98,0.00,,,0.22,VWS V14.01,2013-01-16 21:10:00,
2013-01-16 16:16:00,49.2,48.7,30.17,SSW,207,0.0,0.0,98,0.00,,,0.22,VWS V14.01,2013-01-16 21:16:00,
2013-01-16 16:22:00,49.2,48.7,30.18,SSW,207,0.0,0.0,98,0.00,,,0.22,VWS V14.01,2013-01-16 21:22:00,
2013-01-16 16:28:00,49.4,48.9,30.18,SSW,207,0.0,0.0,98,0.00,,,0.22,VWS V14.01,2013-01-16 21:28:00,
2013-01-16 16:30:00,49.5,49.0,30.18,SSW,207,0.0,0.0,98,0.00,,,0.22,VWS V14.01,2013-01-16 21:30:00,
2013-01-16 16:33:00,49.5,49.0,30.18,SSW,207,0.0,0.0,98,0.00,,,0.22,VWS V14.01,2013-01-16 21:33:00,
2013-01-16 16:39:00,49.6,49.1,30.19,SSW,207,0.0,0.0,98,0.00,,,0.22,VWS V14.01,2013-01-16 21:39:00,
2013-01-16 16:45:00,49.8,49.3,30.18,SSW,207,0.0,0.0,98,0.00,,,0.22,VWS V14.01,2013-01-16 21:45:00,
2013-01-16 16:50:00,49.9,49.4,30.18,SSW,207,0.0,1.0,98,0.00,,,0.22,VWS V14.01,2013-01-16 21:50:00,
2013-01-16 16:56:00,49.9,49.4,30.18,SSW,207,0.0,1.0,98,0.00,,,0.22,VWS V14.01,2013-01-16 21:56:00,
2013-01-16 17:00:00,50.0,49.5,30.18,SSW,207,0.0,1.0,98,0.00,,,0.22,VWS V14.01,2013-01-16 22:00:00,
2013-01-16 17:02:00,49.9,49.4,30.18,SSW,207,0.0,1.0,98,0.00,,,0.22,VWS V14.01,2013-01-16 22:02:00,
2013-01-16 17:08:00,50.0,49.5,30.18,SSW,207,0.0,0.0,98,0.00,,,0.22,VWS V14.01,2013-01-16 22:08:00,
2013-01-16 17:14:00,50.0,49.5,30.18,SSW,207,0.0,0.0,98,0.00,,,0.22,VWS V14.01,2013-01-16 22:14:00,
2013-01-16 17:20:00,50.0,49.5,30.18,SSW,207,0.0,2.0,98,0.00,,,0.22,VWS V14.01,2013-01-16 22:20:00,
2013-01-16 17:25:00,50.0,49.5,30.19,SSW,207,0.0,2.0,98,0.00,,,0.22,VWS V14.01,2013-01-16 22:25:00,
2013-01-16 17:30:00,50.0,49.5,30.18,SSW,207,0.0,2.0,98,0.00,,,0.22,VWS V14.01,2013-01-16 22:30:00,
2013-01-16 17:31:00,50.0,49.5,30.18,SSW,207,0.0,2.0,98,0.00,,,0.22,VWS V14.01,2013-01-16 22:31:00,
2013-01-16 17:37:00,50.0,49.5,30.18,SSW,207,0.0,0.0,98,0.00,,,0.22,VWS V14.01,2013-01-16 22:37:00,
2013-01-16 17:43:00,49.9,49.4,30.19,SSW,207,0.0,0.0,98,0.00,,,0.22,VWS V14.01,2013-01-16 22:43:00,
2013-01-16 17:49:00,49.8,49.3,30.18,SSW,207,0.0,0.0,98,0.00,,,0.22,VWS V14.01,2013-01-16 22:49:00,
2013-01-16 17:54:00,49.7,49.2,30.18,SSW,207,0.0,0.0,98,0.00,,,0.22,VWS V14.01,2013-01-16 22:54:00,
2013-01-16 18:00:00,49.6,49.1,30.19,SSW,207,0.0,0.0,98,0.00,,,0.22,VWS V14.01,2013-01-16 23:00:00,
2013-01-16 18:06:00,49.6,49.1,30.19,SSW,207,0.0,0.0,98,0.00,,,0.22,VWS V14.01,2013-01-16 23:06:00,
2013-01-16 18:11:00,49.5,49.0,30.18,SSW,207,1.0,2.0,98,0.00,,,0.22,VWS V14.01,2013-01-16 23:11:00,
2013-01-16 18:17:00,49.4,48.9,30.18,SSW,207,0.0,2.0,98,0.00,,,0.22,VWS V14.01,2013-01-16 23:17:00,
2013-01-16 18:23:00,49.4,48.9,30.18,SSW,207,0.0,2.0,98,0.00,,,0.22,VWS V14.01,2013-01-16 23:23:00,
2013-01-16 18:29:00,49.3,48.8,30.19,SSW,207,0.0,2.0,98,0.00,,,0.22,VWS V14.01,2013-01-16 23:29:00,
2013-01-16 18:30:00,49.2,48.7,30.19,SSW,207,0.0,2.0,98,0.00,,,0.22,VWS V14.01,2013-01-16 23:30:00,
2013-01-16 18:35:00,49.2,48.7,30.19,SSW,207,0.0,2.0,98,0.00,,,0.22,VWS V14.01,2013-01-16 23:35:00,
2013-01-16 18:40:00,49.2,48.7,30.19,SSW,207,0.0,0.0,98,0.00,,,0.22,VWS V14.01,2013-01-16 23:40:00,
2013-01-16 18:46:00,49.2,48.7,30.19,SSW,207,0.0,4.0,98,0.00,,,0.22,VWS V14.01,2013-01-16 23:46:00,
2013-01-16 18:52:00,49.2,48.7,30.19,SSW,207,0.0,4.0,98,0.00,,,0.22,VWS V14.01,2013-01-16 23:52:00,
2013-01-16 18:58:00,49.2,48.7,30.20,SSW,207,0.0,4.0,98,0.00,,,0.22,VWS V14.01,2013-01-16 23:58:00,
2013-01-16 19:00:00,49.2,48.7,30.19,SSW,207,0.0,4.0,98,0.00,,,0.22,VWS V14.01,2013-01-17 00:00:00,
2013-01-16 19:04:00,49.2,48.7,30.19,SSW,207,0.0,4.0,98,0.00,,,0.22,VWS V14.01,2013-01-17 00:04:00,
2013-01-16 19:10:00,49.2,48.7,30.18,SSW,207,0.0,0.0,98,0.00,,,0.22,VWS V14.01,2013-01-17 00:10:00,
2013-01-16 19:15:00,49.1,48.6,30.18,SSW,207,0.0,0.0,98,0.00,,,0.22,VWS V14.01,2013-01-17 00:15:00,
2013-01-16 19:21:00,49.1,48.6,30.19,SSW,207,0.0,0.0,98,0.00,,,0.22,VWS V14.01,2013-01-17 00:21:00,
2013-01-16 19:27:00,49.0,48.5,30.18,SSW,207,0.0,0.0,98,0.00,,,0.22,VWS V14.01,2013-01-17 00:27:00,
2013-01-16 19:30:00,49.0,48.5,30.19,SSW,207,0.0,0.0,98,0.00,,,0.22,VWS V14.01,2013-01-17 00:30:00,
2013-01-16 19:33:00,49.0,48.5,30.19,SSW,207,0.0,0.0,98,0.00,,,0.22,VWS V14.01,2013-01-17 00:33:00,
2013-01-16 19:38:00,49.0,48.5,30.18,SSW,207,0.0,0.0,98,0.00,,,0.22,VWS V14.01,2013-01-17 00:38:00,
2013-01-16 19:44:00,49.0,48.5,30.17,SSW,207,0.0,0.0,98,0.00,,,0.22,VWS V14.01,2013-01-17 00:44:00,
2013-01-16 19:50:00,48.9,48.4,30.17,SSW,207,0.0,0.0,98,0.00,,,0.22,VWS V14.01,2013-01-17 00:50:00,
2013-01-16 19:56:00,48.9,48.4,30.18,SSW,207,0.0,0.0,98,0.00,,,0.22,VWS V14.01,2013-01-17 00:56:00,
2013-01-16 20:00:00,48.9,48.4,30.18,SSW,207,0.0,0.0,98,0.00,,,0.22,VWS V14.01,2013-01-17 01:00:00,
2013-01-16 20:01:00,48.9,48.4,30.18,SSW,207,0.0,0.0,98,0.00,,,0.22,VWS V14.01,2013-01-17 01:01:00,
2013-01-16 20:07:00,48.9,48.4,30.18,SSW,207,0.0,0.0,98,0.00,,,0.22,VWS V14.01,2013-01-17 01:07:00,
2013-01-16 20:13:00,48.8,48.3,30.19,SSW,207,0.0,0.0,98,0.00,,,0.22,VWS V14.01,2013-01-17 01:13:00,
2013-01-16 20:19:00,48.8,48.3,30.19,SSW,207,0.0,0.0,98,0.00,,,0.22,VWS V14.01,2013-01-17 01:19:00,
2013-01-16 20:25:00,48.8,48.3,30.19,SSW,207,0.0,0.0,98,0.00,,,0.22,VWS V14.01,2013-01-17 01:25:00,
2013-01-16 20:30:00,48.8,48.3,30.19,SSW,207,0.0,0.0,98,0.00,,,0.22,VWS V14.01,2013-01-17 01:30:00,
2013-01-16 20:36:00,48.8,48.3,30.19,SSW,207,0.0,0.0,98,0.00,,,0.22,VWS V14.01,2013-01-17 01:36:00,
2013-01-16 20:42:00,48.8,48.3,30.19,SSW,207,0.0,0.0,98,0.00,,,0.22,VWS V14.01,2013-01-17 01:42:00,
2013-01-16 20:48:00,48.8,48.3,30.18,SSW,207,0.0,0.0,98,0.00,,,0.22,VWS V14.01,2013-01-17 01:48:00,
2013-01-16 20:54:00,48.8,48.3,30.19,SSW,207,0.0,0.0,98,0.00,,,0.22,VWS V14.01,2013-01-17 01:54:00,
2013-01-16 20:59:00,48.8,48.3,30.18,SSW,207,0.0,0.0,98,0.00,,,0.22,VWS V14.01,2013-01-17 01:59:00,
2013-01-16 21:00:00,48.8,48.3,30.18,SSW,207,0.0,0.0,98,0.00,,,0.22,VWS V14.01,2013-01-17 02:00:00,
2013-01-16 21:04:00,48.8,48.3,30.18,SSW,207,0.0,0.0,98,0.00,,,0.22,VWS V14.01,2013-01-17 02:04:00,
2013-01-16 21:10:00,48.8,48.3,30.19,SSW,207,0.0,0.0,98,0.00,,,0.22,VWS V14.01,2013-01-17 02:10:00,
2013-01-16 21:15:00,48.8,48.3,30.18,SSW,207,0.0,0.0,98,0.00,,,0.22,VWS V14.01,2013-01-17 02:15:00,
2013-01-16 21:21:00,48.8,48.3,30.19,SSW,207,0.0,0.0,98,0.00,,,0.22,VWS V14.01,2013-01-17 02:21:00,
2013-01-16 21:27:00,48.8,48.3,30.18,SSW,207,0.0,0.0,98,0.00,,,0.22,VWS V14.01,2013-01-17 02:27:00,
2013-01-16 21:30:00,48.8,48.3,30.18,SSW,207,0.0,0.0,98,0.00,,,0.22,VWS V14.01,2013-01-17 02:30:00,
2013-01-16 21:33:00,48.8,48.3,30.18,SSW,207,0.0,0.0,98,0.00,,,0.22,VWS V14.01,2013-01-17 02:33:00,
2013-01-16 21:38:00,48.8,48.3,30.18,SSW,207,0.0,0.0,98,0.00,,,0.22,VWS V14.01,2013-01-17 02:38:00,
2013-01-16 21:44:00,48.8,48.3,30.18,SSW,207,0.0,0.0,98,0.00,,,0.22,VWS V14.01,2013-01-17 02:44:00,
2013-01-16 21:50:00,48.8,48.3,30.17,SSW,207,0.0,0.0,98,0.00,,,0.22,VWS V14.01,2013-01-17 02:50:00,
2013-01-16 21:56:00,48.9,48.4,30.17,SSW,207,0.0,0.0,98,0.00,,,0.22,VWS V14.01,2013-01-17 02:56:00,
2013-01-16 22:00:00,48.9,48.4,30.17,SSW,207,0.0,0.0,98,0.00,,,0.22,VWS V14.01,2013-01-17 03:00:00,
2013-01-16 22:02:00,48.9,48.4,30.17,SSW,207,0.0,0.0,98,0.00,,,0.22,VWS V14.01,2013-01-17 03:02:00,
2013-01-16 22:07:00,48.9,48.4,30.17,SSW,207,0.0,0.0,98,0.00,,,0.22,VWS V14.01,2013-01-17 03:07:00,
2013-01-16 22:13:00,48.9,48.4,30.17,SSW,207,0.0,0.0,98,0.00,,,0.22,VWS V14.01,2013-01-17 03:13:00,
2013-01-16 22:19:00,48.9,48.4,30.16,SSW,207,0.0,0.0,98,0.00,,,0.22,VWS V14.01,2013-01-17 03:19:00,
2013-01-16 22:25:00,49.0,48.5,30.16,SSW,207,0.0,0.0,98,0.00,,,0.22,VWS V14.01,2013-01-17 03:25:00,
2013-01-16 22:30:00,49.0,48.5,30.16,SSW,207,0.0,0.0,98,0.00,,,0.22,VWS V14.01,2013-01-17 03:30:00,
2013-01-16 22:31:00,49.0,48.5,30.16,SSW,207,0.0,0.0,98,0.00,,,0.22,VWS V14.01,2013-01-17 03:31:00,
2013-01-16 22:37:00,49.0,48.5,30.16,SSW,207,0.0,0.0,98,0.00,,,0.22,VWS V14.01,2013-01-17 03:37:00,
2013-01-16 22:43:00,49.1,48.6,30.15,SSW,207,0.0,0.0,98,0.00,,,0.22,VWS V14.01,2013-01-17 03:43:00,
2013-01-16 22:49:00,49.1,48.6,30.15,SSW,207,0.0,0.0,98,0.00,,,0.22,VWS V14.01,2013-01-17 03:49:00,
2013-01-16 22:54:00,49.1,48.6,30.15,SSW,207,0.0,0.0,98,0.00,,,0.22,VWS V14.01,2013-01-17 03:54:00,
2013-01-16 23:00:00,49.1,48.6,30.15,SSW,207,0.0,0.0,98,0.00,,,0.22,VWS V14.01,2013-01-17 04:00:00,
2013-01-16 23:06:00,49.2,48.7,30.15,SSW,207,0.0,0.0,98,0.00,,,0.22,VWS V14.01,2013-01-17 04:06:00,
2013-01-16 23:12:00,49.2,48.7,30.15,SSW,207,0.0,0.0,98,0.01,,,0.23,VWS V14.01,2013-01-17 04:12:00,
2013-01-16 23:18:00,49.2,48.7,30.16,SSW,207,0.0,0.0,98,0.01,,,0.23,VWS V14.01,2013-01-17 04:18:00,
2013-01-16 23:23:00,49.2,48.7,30.16,SSW,207,0.0,0.0,98,0.01,,,0.23,VWS V14.01,2013-01-17 04:23:00,
2013-01-16 23:29:00,49.3,48.8,30.16,SSW,207,0.0,0.0,98,0.01,,,0.23,VWS V14.01,2013-01-17 04:29:00,
2013-01-16 23:30:00,49.3,48.8,30.16,SSW,207,0.0,0.0,98,0.01,,,0.23,VWS V14.01,2013-01-17 04:30:00,
2013-01-16 23:34:00,49.3,48.8,30.16,SSW,207,0.0,0.0,98,0.01,,,0.23,VWS V14.01,2013-01-17 04:34:00,
2013-01-16 23:40:00,49.4,48.9,30.16,SSW,207,0.0,0.0,98,0.01,,,0.23,VWS V14.01,2013-01-17 04:40:00,
2013-01-16 23:46:00,49.4,48.9,30.16,SSW,207,0.0,0.0,98,0.01,,,0.23,VWS V14.01,2013-01-17 04:46:00,
2013-01-16 23:51:00,49.4,48.9,30.16,SSW,207,0.0,0.0,98,0.02,,,0.24,VWS V14.01,2013-01-17 04:51:00,
2013-01-16 23:57:00,49.5,49.0,30.16,SSW,207,0.0,0.0,98,0.02,,,0.24,VWS V14.01,2013-01-17 04:57:00,